sensor_id;sensor_type;location;lat;lon;timestamp;P1;durP1;ratioP1;P2;durP2;ratioP2
60847;SDS011;46681;47.696;9.140;2022-08-24T00:00:20;6.93;;;2.10;;
60847;SDS011;46681;47.696;9.140;2022-08-24T00:02:46;6.65;;;2.15;;
60847;SDS011;46681;47.696;9.140;2022-08-24T00:05:12;7.00;;;2.15;;
60847;SDS011;46681;47.696;9.140;2022-08-24T00:07:38;6.55;;;2.00;;
60847;SDS011;46681;47.696;9.140;2022-08-24T00:10:04;6.10;;;2.20;;
60847;SDS011;46681;47.696;9.140;2022-08-24T00:12:32;6.57;;;2.40;;
60847;SDS011;46681;47.696;9.140;2022-08-24T00:14:58;7.25;;;2.30;;
60847;SDS011;46681;47.696;9.140;2022-08-24T00:17:25;6.75;;;2.17;;
60847;SDS011;46681;47.696;9.140;2022-08-24T00:19:53;8.38;;;2.35;;
60847;SDS011;46681;47.696;9.140;2022-08-24T00:22:19;7.32;;;2.28;;
60847;SDS011;46681;47.696;9.140;2022-08-24T00:24:44;6.03;;;2.20;;
60847;SDS011;46681;47.696;9.140;2022-08-24T00:27:12;6.95;;;2.17;;
60847;SDS011;46681;47.696;9.140;2022-08-24T00:29:38;6.50;;;2.10;;
60847;SDS011;46681;47.696;9.140;2022-08-24T00:32:04;6.15;;;2.15;;
60847;SDS011;46681;47.696;9.140;2022-08-24T00:34:30;8.63;;;2.20;;
60847;SDS011;46681;47.696;9.140;2022-08-24T00:36:56;5.15;;;1.95;;
60847;SDS011;46681;47.696;9.140;2022-08-24T00:39:21;6.38;;;2.22;;
60847;SDS011;46681;47.696;9.140;2022-08-24T00:41:48;7.22;;;2.20;;
60847;SDS011;46681;47.696;9.140;2022-08-24T00:44:17;7.43;;;2.20;;
60847;SDS011;46681;47.696;9.140;2022-08-24T00:52:20;8.27;;;2.47;;
60847;SDS011;46681;47.696;9.140;2022-08-24T00:55:13;6.68;;;2.20;;
60847;SDS011;46681;47.696;9.140;2022-08-24T00:57:46;6.72;;;2.22;;
60847;SDS011;46681;47.696;9.140;2022-08-24T01:00:21;8.15;;;2.38;;
60847;SDS011;46681;47.696;9.140;2022-08-24T01:02:58;5.40;;;2.03;;
60847;SDS011;46681;47.696;9.140;2022-08-24T01:05:33;7.15;;;2.22;;
60847;SDS011;46681;47.696;9.140;2022-08-24T01:08:03;6.70;;;2.10;;
60847;SDS011;46681;47.696;9.140;2022-08-24T01:10:33;6.88;;;2.15;;
60847;SDS011;46681;47.696;9.140;2022-08-24T01:13:04;7.45;;;2.40;;
60847;SDS011;46681;47.696;9.140;2022-08-24T01:15:40;6.95;;;2.20;;
60847;SDS011;46681;47.696;9.140;2022-08-24T01:18:10;6.40;;;2.20;;
60847;SDS011;46681;47.696;9.140;2022-08-24T01:20:46;7.32;;;2.40;;
60847;SDS011;46681;47.696;9.140;2022-08-24T01:26:13;6.25;;;2.13;;
60847;SDS011;46681;47.696;9.140;2022-08-24T01:28:44;7.30;;;2.33;;
60847;SDS011;46681;47.696;9.140;2022-08-24T01:31:13;8.70;;;2.50;;
60847;SDS011;46681;47.696;9.140;2022-08-24T01:33:40;8.05;;;2.38;;
60847;SDS011;46681;47.696;9.140;2022-08-24T01:36:10;6.97;;;2.30;;
60847;SDS011;46681;47.696;9.140;2022-08-24T01:38:53;7.93;;;2.47;;
60847;SDS011;46681;47.696;9.140;2022-08-24T01:41:24;6.50;;;2.25;;
60847;SDS011;46681;47.696;9.140;2022-08-24T01:43:50;6.07;;;2.10;;
60847;SDS011;46681;47.696;9.140;2022-08-24T01:46:18;7.50;;;2.30;;
60847;SDS011;46681;47.696;9.140;2022-08-24T01:48:45;7.35;;;2.40;;
60847;SDS011;46681;47.696;9.140;2022-08-24T01:51:14;7.30;;;2.30;;
60847;SDS011;46681;47.696;9.140;2022-08-24T01:53:42;7.75;;;2.35;;
60847;SDS011;46681;47.696;9.140;2022-08-24T01:56:09;6.68;;;2.35;;
60847;SDS011;46681;47.696;9.140;2022-08-24T01:58:42;6.10;;;2.20;;
60847;SDS011;46681;47.696;9.140;2022-08-24T02:01:09;6.68;;;2.20;;
60847;SDS011;46681;47.696;9.140;2022-08-24T02:03:42;6.40;;;2.40;;
60847;SDS011;46681;47.696;9.140;2022-08-24T02:06:08;6.60;;;2.28;;
60847;SDS011;46681;47.696;9.140;2022-08-24T02:08:34;6.13;;;2.22;;
60847;SDS011;46681;47.696;9.140;2022-08-24T02:10:59;6.47;;;2.30;;
60847;SDS011;46681;47.696;9.140;2022-08-24T02:13:25;6.75;;;2.47;;
60847;SDS011;46681;47.696;9.140;2022-08-24T02:15:50;5.57;;;2.20;;
60847;SDS011;46681;47.696;9.140;2022-08-24T02:18:18;6.75;;;2.20;;
60847;SDS011;46681;47.696;9.140;2022-08-24T02:20:44;7.68;;;2.58;;
60847;SDS011;46681;47.696;9.140;2022-08-24T02:23:09;6.63;;;2.30;;
60847;SDS011;46681;47.696;9.140;2022-08-24T02:25:35;6.68;;;2.25;;
60847;SDS011;46681;47.696;9.140;2022-08-24T02:28:04;6.50;;;2.28;;
60847;SDS011;46681;47.696;9.140;2022-08-24T02:30:32;6.70;;;2.22;;
60847;SDS011;46681;47.696;9.140;2022-08-24T02:32:59;5.78;;;2.10;;
60847;SDS011;46681;47.696;9.140;2022-08-24T02:35:26;8.23;;;2.40;;
60847;SDS011;46681;47.696;9.140;2022-08-24T02:37:56;7.97;;;2.53;;
60847;SDS011;46681;47.696;9.140;2022-08-24T02:40:22;9.20;;;2.60;;
60847;SDS011;46681;47.696;9.140;2022-08-24T02:42:47;8.15;;;2.35;;
60847;SDS011;46681;47.696;9.140;2022-08-24T02:45:13;6.43;;;2.30;;
60847;SDS011;46681;47.696;9.140;2022-08-24T02:47:42;6.85;;;2.30;;
60847;SDS011;46681;47.696;9.140;2022-08-24T02:50:10;7.10;;;2.40;;
60847;SDS011;46681;47.696;9.140;2022-08-24T02:52:37;6.85;;;2.50;;
60847;SDS011;46681;47.696;9.140;2022-08-24T02:55:10;7.63;;;2.40;;
60847;SDS011;46681;47.696;9.140;2022-08-24T02:57:44;6.57;;;2.40;;
60847;SDS011;46681;47.696;9.140;2022-08-24T03:00:11;7.40;;;2.50;;
60847;SDS011;46681;47.696;9.140;2022-08-24T03:02:39;7.55;;;2.40;;
60847;SDS011;46681;47.696;9.140;2022-08-24T03:05:13;8.38;;;2.45;;
60847;SDS011;46681;47.696;9.140;2022-08-24T03:07:42;9.15;;;2.55;;
60847;SDS011;46681;47.696;9.140;2022-08-24T03:10:10;6.57;;;2.33;;
60847;SDS011;46681;47.696;9.140;2022-08-24T03:12:38;6.00;;;2.13;;
60847;SDS011;46681;47.696;9.140;2022-08-24T03:15:08;7.57;;;2.30;;
60847;SDS011;46681;47.696;9.140;2022-08-24T03:17:36;5.95;;;2.13;;
60847;SDS011;46681;47.696;9.140;2022-08-24T03:20:02;6.43;;;2.20;;
60847;SDS011;46681;47.696;9.140;2022-08-24T03:22:30;6.72;;;2.13;;
60847;SDS011;46681;47.696;9.140;2022-08-24T03:24:55;6.57;;;2.05;;
60847;SDS011;46681;47.696;9.140;2022-08-24T03:27:21;6.53;;;2.10;;
60847;SDS011;46681;47.696;9.140;2022-08-24T03:29:46;6.47;;;2.20;;
60847;SDS011;46681;47.696;9.140;2022-08-24T03:32:23;6.82;;;2.30;;
60847;SDS011;46681;47.696;9.140;2022-08-24T03:34:48;6.00;;;2.20;;
60847;SDS011;46681;47.696;9.140;2022-08-24T03:37:20;6.45;;;2.33;;
60847;SDS011;46681;47.696;9.140;2022-08-24T03:39:46;7.53;;;2.30;;
60847;SDS011;46681;47.696;9.140;2022-08-24T03:42:18;7.55;;;2.60;;
60847;SDS011;46681;47.696;9.140;2022-08-24T03:44:45;6.18;;;2.25;;
60847;SDS011;46681;47.696;9.140;2022-08-24T03:47:11;8.38;;;2.63;;
60847;SDS011;46681;47.696;9.140;2022-08-24T03:49:39;6.55;;;2.30;;
60847;SDS011;46681;47.696;9.140;2022-08-24T03:52:08;5.80;;;2.13;;
60847;SDS011;46681;47.696;9.140;2022-08-24T03:54:33;7.65;;;2.33;;
60847;SDS011;46681;47.696;9.140;2022-08-24T03:56:59;7.40;;;2.50;;
60847;SDS011;46681;47.696;9.140;2022-08-24T03:59:24;7.70;;;2.30;;
60847;SDS011;46681;47.696;9.140;2022-08-24T04:01:50;8.02;;;2.45;;
60847;SDS011;46681;47.696;9.140;2022-08-24T04:04:17;7.28;;;2.40;;
60847;SDS011;46681;47.696;9.140;2022-08-24T04:06:43;6.72;;;2.30;;
60847;SDS011;46681;47.696;9.140;2022-08-24T04:09:12;6.68;;;2.38;;
60847;SDS011;46681;47.696;9.140;2022-08-24T04:11:42;8.07;;;2.47;;
60847;SDS011;46681;47.696;9.140;2022-08-24T04:14:08;7.93;;;2.50;;
60847;SDS011;46681;47.696;9.140;2022-08-24T04:16:34;6.30;;;2.17;;
60847;SDS011;46681;47.696;9.140;2022-08-24T04:19:00;7.57;;;2.45;;
60847;SDS011;46681;47.696;9.140;2022-08-24T04:21:32;6.72;;;2.38;;
60847;SDS011;46681;47.696;9.140;2022-08-24T04:24:05;6.68;;;2.28;;
60847;SDS011;46681;47.696;9.140;2022-08-24T04:26:32;6.22;;;2.28;;
60847;SDS011;46681;47.696;9.140;2022-08-24T04:29:06;8.52;;;2.20;;
60847;SDS011;46681;47.696;9.140;2022-08-24T04:31:46;7.65;;;2.50;;
60847;SDS011;46681;47.696;9.140;2022-08-24T04:34:15;7.05;;;2.50;;
60847;SDS011;46681;47.696;9.140;2022-08-24T04:36:43;7.55;;;2.47;;
60847;SDS011;46681;47.696;9.140;2022-08-24T04:39:10;6.47;;;2.30;;
60847;SDS011;46681;47.696;9.140;2022-08-24T04:41:39;7.35;;;2.53;;
60847;SDS011;46681;47.696;9.140;2022-08-24T04:44:08;6.85;;;2.30;;
60847;SDS011;46681;47.696;9.140;2022-08-24T04:46:39;6.95;;;2.47;;
60847;SDS011;46681;47.696;9.140;2022-08-24T04:49:06;6.95;;;2.33;;
60847;SDS011;46681;47.696;9.140;2022-08-24T04:51:35;6.00;;;2.38;;
60847;SDS011;46681;47.696;9.140;2022-08-24T04:54:00;6.25;;;2.30;;
60847;SDS011;46681;47.696;9.140;2022-08-24T04:56:33;8.52;;;2.30;;
60847;SDS011;46681;47.696;9.140;2022-08-24T04:59:02;7.03;;;2.40;;
60847;SDS011;46681;47.696;9.140;2022-08-24T05:01:35;6.82;;;2.30;;
60847;SDS011;46681;47.696;9.140;2022-08-24T05:04:01;6.72;;;2.40;;
60847;SDS011;46681;47.696;9.140;2022-08-24T05:06:30;6.70;;;2.30;;
60847;SDS011;46681;47.696;9.140;2022-08-24T05:08:56;6.25;;;2.33;;
60847;SDS011;46681;47.696;9.140;2022-08-24T05:11:23;6.82;;;2.50;;
60847;SDS011;46681;47.696;9.140;2022-08-24T05:13:53;7.97;;;2.50;;
60847;SDS011;46681;47.696;9.140;2022-08-24T05:16:21;7.10;;;2.50;;
60847;SDS011;46681;47.696;9.140;2022-08-24T05:18:49;6.30;;;2.20;;
60847;SDS011;46681;47.696;9.140;2022-08-24T05:21:23;6.25;;;2.40;;
60847;SDS011;46681;47.696;9.140;2022-08-24T05:23:51;8.00;;;2.60;;
60847;SDS011;46681;47.696;9.140;2022-08-24T05:26:20;7.65;;;2.50;;
60847;SDS011;46681;47.696;9.140;2022-08-24T05:28:59;6.57;;;2.30;;
60847;SDS011;46681;47.696;9.140;2022-08-24T05:31:27;11.18;;;3.25;;
60847;SDS011;46681;47.696;9.140;2022-08-24T05:33:54;10.13;;;3.03;;
60847;SDS011;46681;47.696;9.140;2022-08-24T05:36:24;9.73;;;2.90;;
60847;SDS011;46681;47.696;9.140;2022-08-24T05:39:05;7.60;;;2.63;;
60847;SDS011;46681;47.696;9.140;2022-08-24T05:41:38;9.95;;;3.00;;
60847;SDS011;46681;47.696;9.140;2022-08-24T05:44:12;9.07;;;3.10;;
60847;SDS011;46681;47.696;9.140;2022-08-24T05:46:42;8.15;;;3.00;;
60847;SDS011;46681;47.696;9.140;2022-08-24T05:49:12;7.47;;;3.00;;
60847;SDS011;46681;47.696;9.140;2022-08-24T05:51:38;10.07;;;3.20;;
60847;SDS011;46681;47.696;9.140;2022-08-24T05:54:05;10.15;;;3.03;;
60847;SDS011;46681;47.696;9.140;2022-08-24T05:56:36;8.77;;;2.97;;
60847;SDS011;46681;47.696;9.140;2022-08-24T05:59:02;8.10;;;2.70;;
60847;SDS011;46681;47.696;9.140;2022-08-24T06:01:29;8.50;;;2.85;;
60847;SDS011;46681;47.696;9.140;2022-08-24T06:04:03;8.27;;;2.90;;
60847;SDS011;46681;47.696;9.140;2022-08-24T06:06:32;7.70;;;2.70;;
60847;SDS011;46681;47.696;9.140;2022-08-24T06:09:00;8.00;;;2.72;;
60847;SDS011;46681;47.696;9.140;2022-08-24T06:11:32;7.50;;;2.60;;
60847;SDS011;46681;47.696;9.140;2022-08-24T06:14:03;8.48;;;2.80;;
60847;SDS011;46681;47.696;9.140;2022-08-24T06:16:38;9.80;;;3.10;;
60847;SDS011;46681;47.696;9.140;2022-08-24T06:19:17;9.25;;;3.03;;
60847;SDS011;46681;47.696;9.140;2022-08-24T06:21:50;8.50;;;3.00;;
60847;SDS011;46681;47.696;9.140;2022-08-24T06:24:21;7.82;;;2.80;;
60847;SDS011;46681;47.696;9.140;2022-08-24T06:26:47;8.05;;;2.95;;
60847;SDS011;46681;47.696;9.140;2022-08-24T06:29:14;9.68;;;2.80;;
60847;SDS011;46681;47.696;9.140;2022-08-24T06:31:46;7.43;;;2.70;;
60847;SDS011;46681;47.696;9.140;2022-08-24T06:34:17;8.48;;;2.70;;
60847;SDS011;46681;47.696;9.140;2022-08-24T06:36:46;8.32;;;2.80;;
60847;SDS011;46681;47.696;9.140;2022-08-24T06:39:15;8.25;;;3.10;;
60847;SDS011;46681;47.696;9.140;2022-08-24T06:41:42;7.72;;;2.80;;
60847;SDS011;46681;47.696;9.140;2022-08-24T06:44:10;8.07;;;2.95;;
60847;SDS011;46681;47.696;9.140;2022-08-24T06:46:39;7.88;;;2.80;;
60847;SDS011;46681;47.696;9.140;2022-08-24T06:49:05;7.85;;;2.60;;
60847;SDS011;46681;47.696;9.140;2022-08-24T06:51:31;8.25;;;2.60;;
60847;SDS011;46681;47.696;9.140;2022-08-24T06:53:58;8.32;;;2.90;;
60847;SDS011;46681;47.696;9.140;2022-08-24T06:56:24;7.82;;;2.88;;
60847;SDS011;46681;47.696;9.140;2022-08-24T06:58:52;8.13;;;2.70;;
60847;SDS011;46681;47.696;9.140;2022-08-24T07:01:22;8.45;;;2.83;;
60847;SDS011;46681;47.696;9.140;2022-08-24T07:03:51;7.80;;;2.50;;
60847;SDS011;46681;47.696;9.140;2022-08-24T07:06:19;8.35;;;2.65;;
60847;SDS011;46681;47.696;9.140;2022-08-24T07:08:51;7.28;;;2.28;;
60847;SDS011;46681;47.696;9.140;2022-08-24T07:11:21;7.25;;;2.55;;
60847;SDS011;46681;47.696;9.140;2022-08-24T07:13:48;7.90;;;2.50;;
60847;SDS011;46681;47.696;9.140;2022-08-24T07:16:16;7.13;;;2.72;;
60847;SDS011;46681;47.696;9.140;2022-08-24T07:18:48;7.20;;;2.70;;
60847;SDS011;46681;47.696;9.140;2022-08-24T07:21:18;7.70;;;2.55;;
60847;SDS011;46681;47.696;9.140;2022-08-24T07:23:44;6.85;;;2.60;;
60847;SDS011;46681;47.696;9.140;2022-08-24T07:26:18;6.47;;;2.42;;
60847;SDS011;46681;47.696;9.140;2022-08-24T07:28:48;7.80;;;2.40;;
60847;SDS011;46681;47.696;9.140;2022-08-24T07:31:28;7.35;;;2.50;;
60847;SDS011;46681;47.696;9.140;2022-08-24T07:34:12;7.40;;;2.53;;
60847;SDS011;46681;47.696;9.140;2022-08-24T07:36:41;8.45;;;2.53;;
60847;SDS011;46681;47.696;9.140;2022-08-24T07:39:08;6.93;;;2.38;;
60847;SDS011;46681;47.696;9.140;2022-08-24T07:41:42;7.03;;;2.40;;
60847;SDS011;46681;47.696;9.140;2022-08-24T07:44:10;6.70;;;2.30;;
60847;SDS011;46681;47.696;9.140;2022-08-24T07:46:38;8.73;;;2.40;;
60847;SDS011;46681;47.696;9.140;2022-08-24T07:49:08;7.20;;;2.30;;
60847;SDS011;46681;47.696;9.140;2022-08-24T07:51:51;7.72;;;2.60;;
60847;SDS011;46681;47.696;9.140;2022-08-24T07:54:36;8.50;;;2.35;;
60847;SDS011;46681;47.696;9.140;2022-08-24T07:57:02;7.75;;;2.55;;
60847;SDS011;46681;47.696;9.140;2022-08-24T07:59:30;5.93;;;2.10;;
60847;SDS011;46681;47.696;9.140;2022-08-24T08:02:13;6.28;;;2.20;;
60847;SDS011;46681;47.696;9.140;2022-08-24T08:04:42;6.18;;;2.20;;
60847;SDS011;46681;47.696;9.140;2022-08-24T08:07:11;6.32;;;2.20;;
60847;SDS011;46681;47.696;9.140;2022-08-24T08:09:39;6.72;;;2.35;;
60847;SDS011;46681;47.696;9.140;2022-08-24T08:12:15;6.93;;;2.10;;
60847;SDS011;46681;47.696;9.140;2022-08-24T08:14:43;7.53;;;2.30;;
60847;SDS011;46681;47.696;9.140;2022-08-24T08:17:11;6.90;;;2.22;;
60847;SDS011;46681;47.696;9.140;2022-08-24T08:19:41;6.00;;;2.10;;
60847;SDS011;46681;47.696;9.140;2022-08-24T08:22:07;8.23;;;2.50;;
60847;SDS011;46681;47.696;9.140;2022-08-24T08:24:40;6.20;;;2.17;;
60847;SDS011;46681;47.696;9.140;2022-08-24T08:27:07;5.93;;;2.20;;
60847;SDS011;46681;47.696;9.140;2022-08-24T08:29:37;5.95;;;2.00;;
60847;SDS011;46681;47.696;9.140;2022-08-24T08:32:21;5.38;;;1.88;;
60847;SDS011;46681;47.696;9.140;2022-08-24T08:34:56;5.90;;;2.05;;
60847;SDS011;46681;47.696;9.140;2022-08-24T08:37:25;5.28;;;1.92;;
60847;SDS011;46681;47.696;9.140;2022-08-24T08:39:53;6.43;;;2.00;;
60847;SDS011;46681;47.696;9.140;2022-08-24T08:45:29;4.72;;;1.90;;
60847;SDS011;46681;47.696;9.140;2022-08-24T08:51:05;4.20;;;1.70;;
60847;SDS011;46681;47.696;9.140;2022-08-24T09:08:50;6.72;;;2.00;;
60847;SDS011;46681;47.696;9.140;2022-08-24T09:23:37;5.63;;;1.80;;
60847;SDS011;46681;47.696;9.140;2022-08-24T09:30:07;4.45;;;1.80;;
60847;SDS011;46681;47.696;9.140;2022-08-24T10:08:16;5.13;;;1.65;;
60847;SDS011;46681;47.696;9.140;2022-08-24T10:14:17;5.28;;;1.70;;
60847;SDS011;46681;47.696;9.140;2022-08-24T10:20:27;4.55;;;1.50;;
60847;SDS011;46681;47.696;9.140;2022-08-24T10:26:36;3.40;;;1.45;;
60847;SDS011;46681;47.696;9.140;2022-08-24T10:29:59;5.20;;;1.65;;
60847;SDS011;46681;47.696;9.140;2022-08-24T10:54:09;6.43;;;1.58;;
60847;SDS011;46681;47.696;9.140;2022-08-24T11:00:32;5.72;;;1.50;;
60847;SDS011;46681;47.696;9.140;2022-08-24T11:03:15;4.07;;;1.42;;
60847;SDS011;46681;47.696;9.140;2022-08-24T11:06:26;5.65;;;1.50;;
60847;SDS011;46681;47.696;9.140;2022-08-24T11:09:05;3.63;;;1.30;;
60847;SDS011;46681;47.696;9.140;2022-08-24T11:11:59;3.58;;;1.40;;
60847;SDS011;46681;47.696;9.140;2022-08-24T11:20:57;3.75;;;1.35;;
60847;SDS011;46681;47.696;9.140;2022-08-24T11:23:25;4.25;;;1.35;;
60847;SDS011;46681;47.696;9.140;2022-08-24T11:26:21;6.68;;;1.40;;
60847;SDS011;46681;47.696;9.140;2022-08-24T11:28:51;5.72;;;1.40;;
60847;SDS011;46681;47.696;9.140;2022-08-24T11:31:41;2.50;;;1.20;;
60847;SDS011;46681;47.696;9.140;2022-08-24T11:34:16;4.85;;;1.40;;
60847;SDS011;46681;47.696;9.140;2022-08-24T11:36:58;3.42;;;1.25;;
60847;SDS011;46681;47.696;9.140;2022-08-24T11:39:35;3.58;;;1.30;;
60847;SDS011;46681;47.696;9.140;2022-08-24T11:44:48;2.72;;;1.17;;
60847;SDS011;46681;47.696;9.140;2022-08-24T11:47:51;3.92;;;1.30;;
60847;SDS011;46681;47.696;9.140;2022-08-24T11:50:40;3.25;;;1.30;;
60847;SDS011;46681;47.696;9.140;2022-08-24T12:02:22;3.08;;;1.25;;
60847;SDS011;46681;47.696;9.140;2022-08-24T12:17:01;4.38;;;1.40;;
60847;SDS011;46681;47.696;9.140;2022-08-24T12:26:00;5.72;;;1.40;;
60847;SDS011;46681;47.696;9.140;2022-08-24T12:37:16;3.05;;;1.13;;
60847;SDS011;46681;47.696;9.140;2022-08-24T12:43:28;4.05;;;1.30;;
60847;SDS011;46681;47.696;9.140;2022-08-24T12:52:31;3.50;;;1.17;;
60847;SDS011;46681;47.696;9.140;2022-08-24T12:55:43;2.22;;;1.10;;
60847;SDS011;46681;47.696;9.140;2022-08-24T13:01:32;2.50;;;1.17;;
60847;SDS011;46681;47.696;9.140;2022-08-24T13:07:07;3.47;;;1.05;;
60847;SDS011;46681;47.696;9.140;2022-08-24T13:10:10;2.47;;;1.20;;
60847;SDS011;46681;47.696;9.140;2022-08-24T13:16:01;3.28;;;1.15;;
60847;SDS011;46681;47.696;9.140;2022-08-24T13:19:13;3.47;;;1.10;;
60847;SDS011;46681;47.696;9.140;2022-08-24T13:30:19;2.08;;;1.10;;
60847;SDS011;46681;47.696;9.140;2022-08-24T13:33:07;2.10;;;1.00;;
60847;SDS011;46681;47.696;9.140;2022-08-24T13:38:48;2.58;;;1.10;;
60847;SDS011;46681;47.696;9.140;2022-08-24T13:55:51;2.42;;;1.00;;
60847;SDS011;46681;47.696;9.140;2022-08-24T14:07:19;2.47;;;1.10;;
60847;SDS011;46681;47.696;9.140;2022-08-24T14:09:36;1.83;;;1.00;;
60847;SDS011;46681;47.696;9.140;2022-08-24T14:12:34;2.08;;;1.10;;
60847;SDS011;46681;47.696;9.140;2022-08-24T14:15:18;2.80;;;1.20;;
60847;SDS011;46681;47.696;9.140;2022-08-24T14:29:46;3.08;;;1.20;;
60847;SDS011;46681;47.696;9.140;2022-08-24T14:35:42;3.28;;;1.10;;
60847;SDS011;46681;47.696;9.140;2022-08-24T14:44:50;4.82;;;1.30;;
60847;SDS011;46681;47.696;9.140;2022-08-24T15:01:49;4.10;;;1.30;;
60847;SDS011;46681;47.696;9.140;2022-08-24T15:04:49;3.60;;;1.40;;
60847;SDS011;46681;47.696;9.140;2022-08-24T15:07:32;3.40;;;1.40;;
60847;SDS011;46681;47.696;9.140;2022-08-24T15:10:10;2.63;;;1.25;;
60847;SDS011;46681;47.696;9.140;2022-08-24T15:16:20;3.42;;;1.30;;
60847;SDS011;46681;47.696;9.140;2022-08-24T15:22:28;5.30;;;1.38;;
60847;SDS011;46681;47.696;9.140;2022-08-24T15:30:35;3.00;;;1.30;;
60847;SDS011;46681;47.696;9.140;2022-08-24T15:33:29;2.72;;;1.20;;
60847;SDS011;46681;47.696;9.140;2022-08-24T15:36:26;3.38;;;1.30;;
60847;SDS011;46681;47.696;9.140;2022-08-24T15:39:06;3.72;;;1.30;;
60847;SDS011;46681;47.696;9.140;2022-08-24T15:41:39;3.00;;;1.33;;
60847;SDS011;46681;47.696;9.140;2022-08-24T15:44:29;4.43;;;1.50;;
60847;SDS011;46681;47.696;9.140;2022-08-24T15:47:18;3.80;;;1.50;;
60847;SDS011;46681;47.696;9.140;2022-08-24T15:50:25;3.08;;;1.40;;
60847;SDS011;46681;47.696;9.140;2022-08-24T15:56:27;3.83;;;1.40;;
60847;SDS011;46681;47.696;9.140;2022-08-24T15:59:10;4.07;;;1.35;;
60847;SDS011;46681;47.696;9.140;2022-08-24T16:02:02;4.65;;;1.30;;
60847;SDS011;46681;47.696;9.140;2022-08-24T16:05:11;5.35;;;1.65;;
60847;SDS011;46681;47.696;9.140;2022-08-24T16:10:51;3.92;;;1.40;;
60847;SDS011;46681;47.696;9.140;2022-08-24T16:13:35;3.85;;;1.27;;
60847;SDS011;46681;47.696;9.140;2022-08-24T16:16:12;3.88;;;1.30;;
60847;SDS011;46681;47.696;9.140;2022-08-24T16:19:28;5.88;;;1.40;;
60847;SDS011;46681;47.696;9.140;2022-08-24T16:22:24;3.35;;;1.35;;
60847;SDS011;46681;47.696;9.140;2022-08-24T16:25:34;4.15;;;1.40;;
60847;SDS011;46681;47.696;9.140;2022-08-24T16:30:44;4.00;;;1.50;;
60847;SDS011;46681;47.696;9.140;2022-08-24T16:33:36;4.63;;;1.42;;
60847;SDS011;46681;47.696;9.140;2022-08-24T16:36:17;3.88;;;1.50;;
60847;SDS011;46681;47.696;9.140;2022-08-24T16:38:53;5.35;;;1.60;;
60847;SDS011;46681;47.696;9.140;2022-08-24T16:41:20;4.78;;;1.45;;
60847;SDS011;46681;47.696;9.140;2022-08-24T16:46:27;4.57;;;1.60;;
60847;SDS011;46681;47.696;9.140;2022-08-24T16:49:02;4.90;;;1.50;;
60847;SDS011;46681;47.696;9.140;2022-08-24T16:51:44;3.92;;;1.40;;
60847;SDS011;46681;47.696;9.140;2022-08-24T16:54:18;4.30;;;1.60;;
60847;SDS011;46681;47.696;9.140;2022-08-24T16:57:10;4.63;;;1.63;;
60847;SDS011;46681;47.696;9.140;2022-08-24T16:59:57;4.07;;;1.60;;
60847;SDS011;46681;47.696;9.140;2022-08-24T17:05:10;4.30;;;1.50;;
60847;SDS011;46681;47.696;9.140;2022-08-24T17:07:43;7.57;;;1.60;;
60847;SDS011;46681;47.696;9.140;2022-08-24T17:10:11;5.47;;;1.60;;
60847;SDS011;46681;47.696;9.140;2022-08-24T17:12:48;6.90;;;1.80;;
60847;SDS011;46681;47.696;9.140;2022-08-24T17:15:27;5.22;;;1.70;;
60847;SDS011;46681;47.696;9.140;2022-08-24T17:18:03;3.75;;;1.60;;
60847;SDS011;46681;47.696;9.140;2022-08-24T17:20:40;4.38;;;1.60;;
60847;SDS011;46681;47.696;9.140;2022-08-24T17:23:17;4.32;;;1.60;;
60847;SDS011;46681;47.696;9.140;2022-08-24T17:25:52;4.75;;;1.50;;
60847;SDS011;46681;47.696;9.140;2022-08-24T17:28:22;5.03;;;1.70;;
60847;SDS011;46681;47.696;9.140;2022-08-24T17:30:51;4.97;;;1.65;;
60847;SDS011;46681;47.696;9.140;2022-08-24T17:33:22;4.40;;;1.60;;
60847;SDS011;46681;47.696;9.140;2022-08-24T17:35:50;5.85;;;1.60;;
60847;SDS011;46681;47.696;9.140;2022-08-24T17:38:27;5.15;;;1.60;;
60847;SDS011;46681;47.696;9.140;2022-08-24T17:41:13;4.95;;;1.60;;
60847;SDS011;46681;47.696;9.140;2022-08-24T17:43:48;5.82;;;1.70;;
60847;SDS011;46681;47.696;9.140;2022-08-24T17:46:31;7.05;;;1.75;;
60847;SDS011;46681;47.696;9.140;2022-08-24T17:49:09;4.00;;;1.60;;
60847;SDS011;46681;47.696;9.140;2022-08-24T17:51:36;7.90;;;1.80;;
60847;SDS011;46681;47.696;9.140;2022-08-24T17:54:06;4.88;;;1.80;;
60847;SDS011;46681;47.696;9.140;2022-08-24T17:56:33;5.07;;;1.70;;
60847;SDS011;46681;47.696;9.140;2022-08-24T17:59:11;5.13;;;1.70;;
60847;SDS011;46681;47.696;9.140;2022-08-24T18:02:00;4.40;;;1.70;;
60847;SDS011;46681;47.696;9.140;2022-08-24T18:04:37;5.43;;;1.70;;
60847;SDS011;46681;47.696;9.140;2022-08-24T18:07:09;4.85;;;1.70;;
60847;SDS011;46681;47.696;9.140;2022-08-24T18:09:47;3.38;;;1.50;;
60847;SDS011;46681;47.696;9.140;2022-08-24T18:12:15;3.75;;;1.50;;
60847;SDS011;46681;47.696;9.140;2022-08-24T18:14:49;5.63;;;1.70;;
60847;SDS011;46681;47.696;9.140;2022-08-24T18:17:37;4.93;;;1.70;;
60847;SDS011;46681;47.696;9.140;2022-08-24T18:20:12;5.90;;;1.60;;
60847;SDS011;46681;47.696;9.140;2022-08-24T18:22:40;5.82;;;1.88;;
60847;SDS011;46681;47.696;9.140;2022-08-24T18:25:17;4.68;;;1.70;;
60847;SDS011;46681;47.696;9.140;2022-08-24T18:27:49;4.57;;;1.70;;
60847;SDS011;46681;47.696;9.140;2022-08-24T18:30:29;5.28;;;1.80;;
60847;SDS011;46681;47.696;9.140;2022-08-24T18:33:01;5.35;;;1.67;;
60847;SDS011;46681;47.696;9.140;2022-08-24T18:35:42;4.82;;;1.70;;
60847;SDS011;46681;47.696;9.140;2022-08-24T18:38:08;5.60;;;1.70;;
60847;SDS011;46681;47.696;9.140;2022-08-24T18:40:33;5.18;;;1.80;;
60847;SDS011;46681;47.696;9.140;2022-08-24T18:45:58;5.00;;;1.70;;
60847;SDS011;46681;47.696;9.140;2022-08-24T18:48:26;5.72;;;1.70;;
60847;SDS011;46681;47.696;9.140;2022-08-24T18:51:00;5.53;;;1.77;;
60847;SDS011;46681;47.696;9.140;2022-08-24T18:53:34;5.50;;;1.67;;
60847;SDS011;46681;47.696;9.140;2022-08-24T18:56:27;4.38;;;1.70;;
60847;SDS011;46681;47.696;9.140;2022-08-24T18:58:53;5.93;;;1.77;;
60847;SDS011;46681;47.696;9.140;2022-08-24T19:01:23;6.05;;;1.85;;
60847;SDS011;46681;47.696;9.140;2022-08-24T19:03:55;4.60;;;1.80;;
60847;SDS011;46681;47.696;9.140;2022-08-24T19:06:23;5.50;;;1.73;;
60847;SDS011;46681;47.696;9.140;2022-08-24T19:09:02;4.90;;;1.80;;
60847;SDS011;46681;47.696;9.140;2022-08-24T19:11:37;4.63;;;1.70;;
60847;SDS011;46681;47.696;9.140;2022-08-24T19:14:10;5.45;;;1.88;;
60847;SDS011;46681;47.696;9.140;2022-08-24T19:16:46;5.67;;;1.80;;
60847;SDS011;46681;47.696;9.140;2022-08-24T19:19:13;5.35;;;1.85;;
60847;SDS011;46681;47.696;9.140;2022-08-24T19:21:47;7.00;;;1.90;;
60847;SDS011;46681;47.696;9.140;2022-08-24T19:24:21;6.97;;;2.20;;
60847;SDS011;46681;47.696;9.140;2022-08-24T19:26:52;8.93;;;3.40;;
60847;SDS011;46681;47.696;9.140;2022-08-24T19:29:21;9.45;;;2.80;;
60847;SDS011;46681;47.696;9.140;2022-08-24T19:31:49;8.68;;;2.92;;
60847;SDS011;46681;47.696;9.140;2022-08-24T19:34:22;7.70;;;2.80;;
60847;SDS011;46681;47.696;9.140;2022-08-24T19:36:51;8.63;;;3.13;;
60847;SDS011;46681;47.696;9.140;2022-08-24T19:39:20;9.63;;;3.50;;
60847;SDS011;46681;47.696;9.140;2022-08-24T19:41:55;9.00;;;3.33;;
60847;SDS011;46681;47.696;9.140;2022-08-24T19:44:30;8.40;;;3.03;;
60847;SDS011;46681;47.696;9.140;2022-08-24T19:47:02;8.55;;;3.33;;
60847;SDS011;46681;47.696;9.140;2022-08-24T19:49:31;9.07;;;3.00;;
60847;SDS011;46681;47.696;9.140;2022-08-24T19:51:57;8.85;;;2.70;;
60847;SDS011;46681;47.696;9.140;2022-08-24T19:54:24;8.40;;;2.80;;
60847;SDS011;46681;47.696;9.140;2022-08-24T19:56:57;7.50;;;2.60;;
60847;SDS011;46681;47.696;9.140;2022-08-24T19:59:26;6.90;;;2.40;;
60847;SDS011;46681;47.696;9.140;2022-08-24T20:02:02;7.38;;;2.40;;
60847;SDS011;46681;47.696;9.140;2022-08-24T20:04:32;7.78;;;2.45;;
60847;SDS011;46681;47.696;9.140;2022-08-24T20:06:58;7.00;;;2.33;;